Time;durP1;ratioP1;P1;durP2;ratioP2;P2;SDS_P1;SDS_P2;PMS_P1;PMS_P2;Temp;Humidity;BMP_temperature;BMP_pressure;BME280_temperature;BME280_humidity;BME280_pressure;Samples;Min_cycle;Max_cycle;Signal;HPM_P1;HPM_P2
2022/01/11 00:00:19;;;;;;;63.67;15.57;;;1.00;99.90;;;;;;5037174;28;20036;-70
2022/01/11 00:02:45;;;;;;;47.40;13.45;;;1.00;99.90;;;;;;5037144;28;20083;-70
2022/01/11 00:05:20;;;;;;;117.03;15.98;;;1.00;99.90;;;;;;5037091;28;20068;-70
2022/01/11 00:07:47;;;;;;;71.50;15.32;;;1.00;99.90;;;;;;5036993;28;20037;-70
2022/01/11 00:10:21;;;;;;;68.68;15.15;;;1.00;99.90;;;;;;5037256;28;20100;-70
2022/01/11 00:12:47;;;;;;;68.78;15.55;;;0.90;99.90;;;;;;5036970;28;20040;-70
2022/01/11 00:15:12;;;;;;;52.65;14.93;;;0.90;99.90;;;;;;5036925;28;20033;-70
2022/01/11 00:17:38;;;;;;;64.35;16.67;;;1.00;99.90;;;;;;5036721;28;20067;-70
2022/01/11 00:20:04;;;;;;;47.13;15.93;;;0.90;99.90;;;;;;5054684;28;20112;-70
2022/01/11 00:22:33;;;;;;;47.03;15.20;;;0.90;99.90;;;;;;5020858;28;20072;-71
2022/01/11 00:25:01;;;;;;;38.15;16.85;;;0.90;99.90;;;;;;5036684;28;20048;-71
2022/01/11 00:27:26;;;;;;;37.45;15.95;;;0.90;99.90;;;;;;5036723;28;20130;-71
2022/01/11 00:29:55;;;;;;;48.17;15.20;;;0.90;99.90;;;;;;5036665;28;20455;-71
2022/01/11 00:32:32;;;;;;;62.47;16.83;;;0.90;99.90;;;;;;5036632;28;20037;-70
2022/01/11 00:34:57;;;;;;;54.05;17.15;;;0.90;99.90;;;;;;5020010;28;20390;-70
2022/01/11 00:37:23;;;;;;;50.97;15.88;;;0.80;99.90;;;;;;5036456;28;20043;-70
2022/01/11 00:39:50;;;;;;;59.40;17.02;;;0.90;99.90;;;;;;5036338;28;20045;-70
2022/01/11 00:42:17;;;;;;;58.00;17.45;;;0.80;99.90;;;;;;5036691;28;20060;-70
2022/01/11 00:44:43;;;;;;;61.90;17.38;;;0.80;99.90;;;;;;5036284;28;20041;-70
2022/01/11 00:47:09;;;;;;;82.07;18.40;;;0.80;99.90;;;;;;5035717;28;20086;-70
2022/01/11 00:49:36;;;;;;;46.78;17.63;;;0.80;99.90;;;;;;5036124;28;20051;-71
2022/01/11 00:52:02;;;;;;;40.35;17.17;;;0.80;99.90;;;;;;5036206;28;20555;-71
2022/01/11 00:54:28;;;;;;;57.90;17.45;;;0.80;99.90;;;;;;5036167;28;20124;-71
2022/01/11 00:56:53;;;;;;;68.78;19.15;;;0.80;99.90;;;;;;5036398;28;20127;-71
2022/01/11 00:59:19;;;;;;;47.55;18.30;;;0.80;99.90;;;;;;5019621;28;20517;-70
2022/01/11 01:01:44;;;;;;;33.92;16.83;;;0.80;99.90;;;;;;5036006;28;20519;-70
2022/01/11 01:04:10;;;;;;;59.90;18.48;;;0.80;99.90;;;;;;5035969;28;20123;-70
2022/01/11 01:06:39;;;;;;;56.35;19.65;;;0.90;99.90;;;;;;5035988;28;20045;-70
2022/01/11 01:09:05;;;;;;;76.95;18.88;;;0.90;99.90;;;;;;5035821;28;20119;-70
2022/01/11 01:11:30;;;;;;;50.08;18.25;;;0.90;99.90;;;;;;5035850;28;20045;-70
2022/01/11 01:13:56;;;;;;;38.33;17.25;;;0.90;99.90;;;;;;5019335;28;20045;-70
2022/01/11 01:16:22;;;;;;;52.20;17.75;;;0.90;99.90;;;;;;5035784;28;20043;-70
2022/01/11 01:18:48;;;;;;;52.13;17.45;;;0.90;99.90;;;;;;5035597;28;20055;-70
2022/01/11 01:21:13;;;;;;;63.95;18.75;;;0.90;99.90;;;;;;5035655;28;20041;-70
2022/01/11 01:23:39;;;;;;;43.17;17.77;;;0.90;99.90;;;;;;5035942;28;20041;-70
2022/01/11 01:26:05;;;;;;;44.05;17.73;;;0.90;99.90;;;;;;5035674;28;20406;-70
2022/01/11 01:28:31;;;;;;;55.45;19.27;;;0.80;99.90;;;;;;5035353;28;20094;-70
2022/01/11 01:31:00;;;;;;;47.15;19.77;;;0.80;99.90;;;;;;5019367;28;20048;-70
2022/01/11 01:33:28;;;;;;;44.30;18.25;;;0.80;99.90;;;;;;5035495;28;20055;-70
2022/01/11 01:35:59;;;;;;;59.58;19.15;;;0.80;99.90;;;;;;5035390;28;20079;-71
2022/01/11 01:38:25;;;;;;;54.15;19.08;;;0.70;99.90;;;;;;5035307;28;20041;-70
2022/01/11 01:40:53;;;;;;;71.95;19.80;;;0.70;99.90;;;;;;5035422;28;20087;-70
2022/01/11 01:43:18;;;;;;;54.58;18.40;;;0.70;99.90;;;;;;5035580;28;20084;-70
2022/01/11 01:45:44;;;;;;;88.05;22.42;;;0.70;99.90;;;;;;5035318;28;20033;-70
2022/01/11 01:48:12;;;;;;;85.22;21.30;;;0.60;99.90;;;;;;5035209;28;20516;-70
2022/01/11 01:50:39;;;;;;;54.20;20.38;;;0.70;99.90;;;;;;5018808;28;20033;-70
2022/01/11 01:53:10;;;;;;;79.93;21.05;;;0.60;99.90;;;;;;5035271;28;20037;-71
2022/01/11 01:55:37;;;;;;;137.85;21.83;;;0.70;99.90;;;;;;5018840;28;20489;-71
2022/01/11 01:58:03;;;;;;;103.45;20.52;;;0.70;99.90;;;;;;5035083;28;20045;-70
2022/01/11 02:00:30;;;;;;;83.22;18.35;;;0.60;99.90;;;;;;5034995;28;20037;-71
2022/01/11 02:03:06;;;;;;;46.47;17.63;;;0.60;99.90;;;;;;5035141;28;20037;-71
2022/01/11 02:05:32;;;;;;;102.05;19.42;;;0.60;99.90;;;;;;5035093;28;20120;-71
2022/01/11 02:07:58;;;;;;;77.40;17.70;;;0.60;99.90;;;;;;5018524;28;20072;-71
2022/01/11 02:10:23;;;;;;;67.25;20.58;;;0.60;99.90;;;;;;5035340;28;20033;-70
2022/01/11 02:12:50;;;;;;;35.00;16.42;;;0.60;99.90;;;;;;5034930;28;20448;-70
2022/01/11 02:15:15;;;;;;;63.80;19.67;;;0.60;99.90;;;;;;5035219;28;20405;-70
2022/01/11 02:17:41;;;;;;;68.95;18.40;;;0.60;99.90;;;;;;5035167;28;20481;-70
2022/01/11 02:20:12;;;;;;;98.93;20.65;;;0.60;99.90;;;;;;5035263;28;20406;-70
2022/01/11 02:22:37;;;;;;;111.20;22.48;;;0.70;99.90;;;;;;5035043;28;20045;-70
2022/01/11 02:25:04;;;;;;;65.53;18.35;;;0.70;99.90;;;;;;5034957;28;20044;-70
2022/01/11 02:27:29;;;;;;;96.30;19.38;;;0.70;99.90;;;;;;5034689;28;20040;-70
2022/01/11 02:29:55;;;;;;;91.18;21.27;;;0.60;99.90;;;;;;5018485;28;20479;-71
2022/01/11 02:32:21;;;;;;;68.15;18.95;;;0.60;99.90;;;;;;5034816;28;20044;-71
2022/01/11 02:34:47;;;;;;;41.70;18.85;;;0.70;99.90;;;;;;5034842;28;20094;-71
2022/01/11 02:37:13;;;;;;;57.92;19.08;;;0.70;99.90;;;;;;5034722;28;20087;-71
2022/01/11 02:39:39;;;;;;;60.03;20.35;;;0.70;99.90;;;;;;5034727;28;20048;-71
2022/01/11 02:42:05;;;;;;;47.22;19.50;;;0.70;99.90;;;;;;5018430;28;20153;-70
2022/01/11 02:44:30;;;;;;;82.13;19.30;;;0.70;99.90;;;;;;5035057;28;20485;-70
2022/01/11 02:46:56;;;;;;;90.63;20.38;;;0.70;99.90;;;;;;5034793;28;20116;-70
2022/01/11 02:49:22;;;;;;;42.67;18.33;;;0.80;99.90;;;;;;5034636;28;20033;-70
2022/01/11 02:51:47;;;;;;;68.60;20.67;;;0.70;99.90;;;;;;5034850;28;20155;-70
2022/01/11 02:54:13;;;;;;;65.40;21.00;;;0.80;99.90;;;;;;5034961;28;20041;-70
2022/01/11 02:56:38;;;;;;;68.50;21.83;;;0.80;99.90;;;;;;5034597;28;20484;-70
2022/01/11 02:59:04;;;;;;;86.05;21.77;;;0.70;99.90;;;;;;5034523;28;20041;-70
2022/01/11 03:01:30;;;;;;;77.90;22.67;;;0.70;99.90;;;;;;5034609;28;20037;-70
2022/01/11 03:03:56;;;;;;;78.50;22.77;;;0.70;99.90;;;;;;5034621;28;20041;-70
2022/01/11 03:06:22;;;;;;;134.80;27.40;;;0.80;99.90;;;;;;5034513;28;20422;-70
2022/01/11 03:08:48;;;;;;;75.97;23.70;;;0.80;99.90;;;;;;5034622;28;20048;-70
2022/01/11 03:11:17;;;;;;;73.32;23.08;;;0.80;99.90;;;;;;5035955;28;20033;-70
2022/01/11 03:13:43;;;;;;;62.85;21.02;;;0.90;99.90;;;;;;5038148;28;20040;-70
2022/01/11 03:16:10;;;;;;;74.35;23.83;;;0.90;99.90;;;;;;5037973;28;20056;-70
2022/01/11 03:18:36;;;;;;;65.22;22.98;;;1.00;99.90;;;;;;5037820;28;20045;-70
2022/01/11 03:21:03;;;;;;;57.25;20.17;;;1.00;99.90;;;;;;5037932;28;20039;-70
2022/01/11 03:23:29;;;;;;;88.00;24.15;;;1.00;99.90;;;;;;5037944;28;20099;-70
2022/01/11 03:25:55;;;;;;;85.45;22.88;;;1.00;99.90;;;;;;5037901;28;20508;-70
2022/01/11 03:28:22;;;;;;;69.65;21.13;;;1.00;99.90;;;;;;5037607;28;20044;-70
2022/01/11 03:30:48;;;;;;;81.57;22.15;;;1.10;99.90;;;;;;5037760;28;20049;-71
2022/01/11 03:33:14;;;;;;;52.22;19.77;;;1.10;99.90;;;;;;5037728;28;20037;-71
2022/01/11 03:35:40;;;;;;;77.18;21.25;;;1.10;99.90;;;;;;5037646;28;20131;-71
2022/01/11 03:38:09;;;;;;;52.47;19.80;;;1.10;99.90;;;;;;5037709;28;20044;-71
2022/01/11 03:40:35;;;;;;;65.03;19.38;;;1.10;99.90;;;;;;5038067;28;20036;-71
2022/01/11 03:43:00;;;;;;;63.10;20.48;;;1.10;99.90;;;;;;5037552;28;20409;-71
2022/01/11 03:45:27;;;;;;;88.50;22.75;;;1.00;99.90;;;;;;5037705;28;20032;-71
2022/01/11 03:47:55;;;;;;;51.08;21.60;;;1.00;99.90;;;;;;5037599;28;20047;-71
2022/01/11 03:50:21;;;;;;;46.58;20.10;;;1.00;99.90;;;;;;5037640;28;20099;-71
2022/01/11 03:52:51;;;;;;;60.22;21.70;;;1.00;99.90;;;;;;5021071;28;20056;-71
2022/01/11 03:55:31;;;;;;;69.50;22.35;;;1.00;99.90;;;;;;5037862;28;20043;-71
2022/01/11 03:57:57;;;;;;;43.63;19.52;;;0.90;99.90;;;;;;5020589;28;20037;-71
2022/01/11 04:00:22;;;;;;;55.38;21.25;;;0.90;99.90;;;;;;5020810;28;20116;-71
2022/01/11 04:02:48;;;;;;;83.50;22.52;;;0.90;99.90;;;;;;5037388;28;20049;-71
2022/01/11 04:05:14;;;;;;;65.13;21.83;;;0.90;99.90;;;;;;5037174;28;20131;-71
2022/01/11 04:07:43;;;;;;;90.88;25.55;;;0.90;99.90;;;;;;5037036;28;20076;-71
2022/01/11 04:10:10;;;;;;;62.15;22.63;;;0.90;99.90;;;;;;5037257;28;20059;-71
2022/01/11 04:12:35;;;;;;;67.28;23.70;;;0.90;99.90;;;;;;5037032;28;20040;-71
2022/01/11 04:15:02;;;;;;;66.50;23.55;;;0.90;99.90;;;;;;5036983;28;20052;-71
2022/01/11 04:17:27;;;;;;;78.43;25.40;;;0.90;99.90;;;;;;5036834;28;20536;-71
2022/01/11 04:19:53;;;;;;;47.60;23.25;;;0.90;99.90;;;;;;5036827;28;20040;-71
2022/01/11 04:22:19;;;;;;;50.63;23.65;;;0.90;99.90;;;;;;5036837;28;20459;-70
2022/01/11 04:24:45;;;;;;;44.45;22.38;;;0.90;99.90;;;;;;5037078;28;20392;-70
2022/01/11 04:27:10;;;;;;;50.78;22.75;;;0.90;99.90;;;;;;5036546;28;20532;-70
2022/01/11 04:29:36;;;;;;;47.55;22.60;;;0.90;99.90;;;;;;5036968;28;20049;-70
2022/01/11 04:32:03;;;;;;;62.15;23.77;;;0.90;99.90;;;;;;5036678;28;20493;-70
2022/01/11 04:34:28;;;;;;;55.28;22.85;;;0.90;99.90;;;;;;5036600;28;20052;-70
2022/01/11 04:36:54;;;;;;;62.72;24.25;;;0.90;99.90;;;;;;5036506;28;20048;-70
2022/01/11 04:39:22;;;;;;;53.58;24.50;;;0.90;99.90;;;;;;5036441;28;20049;-70
2022/01/11 04:41:49;;;;;;;69.38;25.75;;;1.00;99.90;;;;;;5019962;28;20130;-71
2022/01/11 04:44:14;;;;;;;63.92;25.85;;;0.90;99.90;;;;;;5036398;28;20047;-71
2022/01/11 04:46:40;;;;;;;50.50;25.08;;;0.90;99.90;;;;;;5054247;28;20032;-71
2022/01/11 04:49:05;;;;;;;50.88;24.40;;;0.90;99.90;;;;;;5036200;28;20094;-70
2022/01/11 04:51:33;;;;;;;52.22;24.35;;;0.90;99.90;;;;;;5036222;28;20095;-71
2022/01/11 04:53:59;;;;;;;56.00;25.80;;;0.90;99.90;;;;;;5019685;28;20127;-71
2022/01/11 04:56:25;;;;;;;58.03;26.60;;;0.90;99.90;;;;;;5036111;28;20059;-71
2022/01/11 04:58:51;;;;;;;58.28;27.10;;;0.90;99.90;;;;;;5036129;28;20045;-71
2022/01/11 05:01:17;;;;;;;45.50;24.90;;;0.90;99.90;;;;;;5036029;28;20453;-70
2022/01/11 05:03:43;;;;;;;41.88;24.75;;;0.90;99.90;;;;;;5035990;28;20037;-70
2022/01/11 05:06:09;;;;;;;45.53;24.40;;;0.90;99.90;;;;;;5035952;28;20121;-70
2022/01/11 05:08:35;;;;;;;52.60;26.80;;;0.90;99.90;;;;;;5035832;28;20037;-70
2022/01/11 05:11:00;;;;;;;47.83;24.98;;;0.90;99.90;;;;;;5036097;28;20194;-70
2022/01/11 05:13:26;;;;;;;48.45;25.67;;;0.90;99.90;;;;;;5035866;28;20554;-70
2022/01/11 05:15:52;;;;;;;50.40;27.40;;;0.90;99.90;;;;;;5035804;28;20048;-70
2022/01/11 05:18:17;;;;;;;47.13;25.75;;;0.90;99.90;;;;;;5035628;28;20056;-70
2022/01/11 05:20:43;;;;;;;42.72;24.90;;;0.90;99.90;;;;;;5035812;28;20033;-70
2022/01/11 05:23:10;;;;;;;53.38;26.25;;;0.90;99.90;;;;;;5019542;28;20041;-70
2022/01/11 05:25:36;;;;;;;44.95;26.10;;;0.90;99.90;;;;;;5035685;28;20041;-70
2022/01/11 05:28:05;;;;;;;40.60;24.27;;;0.90;99.90;;;;;;5035795;28;20056;-70
2022/01/11 05:30:30;;;;;;;48.70;27.20;;;0.90;99.90;;;;;;5035622;28;20033;-70
2022/01/11 05:32:56;;;;;;;52.22;26.48;;;0.80;99.90;;;;;;5035411;28;20047;-70
2022/01/11 05:35:24;;;;;;;57.33;26.98;;;0.90;99.90;;;;;;5035144;28;20033;-70
2022/01/11 05:37:50;;;;;;;56.85;27.45;;;0.90;99.90;;;;;;5018851;28;20037;-70
2022/01/11 05:40:17;;;;;;;48.05;26.08;;;0.90;99.90;;;;;;5035410;28;20041;-70
2022/01/11 05:42:43;;;;;;;50.35;26.25;;;0.80;99.90;;;;;;5035703;28;20041;-70
2022/01/11 05:45:10;;;;;;;46.17;25.17;;;0.80;99.90;;;;;;5035397;28;20033;-71
2022/01/11 05:47:37;;;;;;;55.53;28.02;;;0.90;99.90;;;;;;5018731;28;20041;-70
2022/01/11 05:50:08;;;;;;;57.47;26.92;;;0.80;99.90;;;;;;5019170;28;20496;-70
2022/01/11 05:52:35;;;;;;;48.50;25.42;;;0.80;99.90;;;;;;5035211;28;20041;-70
2022/01/11 05:55:02;;;;;;;53.00;26.80;;;0.80;99.90;;;;;;5035373;28;20063;-70
2022/01/11 05:57:27;;;;;;;50.65;26.65;;;0.80;99.90;;;;;;5018618;28;20079;-70
2022/01/11 05:59:53;;;;;;;49.85;27.83;;;0.90;99.90;;;;;;5035094;28;20041;-70
2022/01/11 06:02:19;;;;;;;46.78;25.38;;;0.90;99.90;;;;;;5035165;28;20048;-70
2022/01/11 06:04:44;;;;;;;46.13;24.83;;;0.90;99.90;;;;;;5035388;28;20037;-70
2022/01/11 06:07:10;;;;;;;50.05;26.95;;;0.90;99.90;;;;;;5035329;28;20047;-70
2022/01/11 06:09:35;;;;;;;47.42;26.17;;;0.90;99.90;;;;;;5018668;28;20044;-70
2022/01/11 06:12:01;;;;;;;49.90;26.48;;;0.90;99.90;;;;;;5035039;28;20041;-70
2022/01/11 06:14:27;;;;;;;51.30;27.65;;;0.80;99.90;;;;;;5035220;28;20037;-70
2022/01/11 06:16:52;;;;;;;46.60;25.85;;;0.90;99.90;;;;;;5035120;28;20390;-70
2022/01/11 06:19:18;;;;;;;47.63;25.83;;;0.90;99.90;;;;;;5034911;28;20095;-70
2022/01/11 06:21:44;;;;;;;50.83;27.15;;;0.90;99.90;;;;;;5035032;28;20047;-70
2022/01/11 06:24:10;;;;;;;47.33;25.58;;;0.80;99.90;;;;;;5035016;28;20119;-70
2022/01/11 06:26:35;;;;;;;52.13;26.55;;;0.80;99.90;;;;;;5034957;28;20036;-70
2022/01/11 06:29:02;;;;;;;52.35;26.63;;;0.80;99.90;;;;;;5034810;28;20041;-70
2022/01/11 06:31:28;;;;;;;51.63;26.77;;;0.80;99.90;;;;;;5035173;28;20051;-70
2022/01/11 06:33:54;;;;;;;53.47;28.02;;;0.80;99.90;;;;;;5034861;28;20413;-70
2022/01/11 06:36:20;;;;;;;50.75;26.83;;;0.80;99.90;;;;;;5034769;28;20045;-70
2022/01/11 06:38:46;;;;;;;44.05;25.45;;;0.80;99.90;;;;;;5034711;28;20094;-70
2022/01/11 06:41:12;;;;;;;47.17;25.88;;;0.80;99.90;;;;;;5034743;28;20041;-70
2022/01/11 06:43:39;;;;;;;46.10;24.65;;;0.80;99.90;;;;;;5034789;28;20037;-70
2022/01/11 06:46:05;;;;;;;53.30;26.25;;;0.80;99.90;;;;;;5019683;28;20033;-70
2022/01/11 06:48:31;;;;;;;44.15;24.98;;;0.80;99.90;;;;;;5022024;28;20123;-70
2022/01/11 06:50:57;;;;;;;44.67;24.30;;;0.80;99.90;;;;;;5038811;28;20045;-70
2022/01/11 06:53:23;;;;;;;46.70;23.92;;;0.80;99.90;;;;;;5038663;28;20055;-70
2022/01/11 06:55:50;;;;;;;50.10;25.10;;;0.80;99.90;;;;;;5038427;28;20041;-70
2022/01/11 06:58:16;;;;;;;45.33;23.40;;;0.80;99.90;;;;;;5021781;28;20119;-70
2022/01/11 07:00:43;;;;;;;44.05;23.27;;;0.80;99.90;;;;;;5038655;28;20516;-71
2022/01/11 07:03:08;;;;;;;40.00;22.02;;;0.80;99.90;;;;;;5056222;28;20619;-71
2022/01/11 07:05:34;;;;;;;40.20;22.88;;;0.80;99.90;;;;;;5038267;28;20124;-71
2022/01/11 07:08:00;;;;;;;45.67;22.50;;;0.80;99.90;;;;;;5038341;28;20040;-71
2022/01/11 07:10:25;;;;;;;44.85;22.77;;;0.80;99.90;;;;;;5038202;28;20040;-70
2022/01/11 07:12:51;;;;;;;44.75;23.00;;;0.80;99.90;;;;;;5038463;28;20055;-70
2022/01/11 07:15:17;;;;;;;46.97;23.98;;;0.80;99.90;;;;;;5038075;28;20036;-70
2022/01/11 07:17:42;;;;;;;47.45;22.92;;;0.70;99.90;;;;;;5038263;28;20037;-70
2022/01/11 07:20:09;;;;;;;42.90;22.60;;;0.70;99.90;;;;;;5037957;28;20136;-70
2022/01/11 07:22:36;;;;;;;36.88;21.50;;;0.70;99.90;;;;;;5038128;28;20072;-70
2022/01/11 07:25:02;;;;;;;44.20;22.80;;;0.70;99.90;;;;;;5038650;28;20048;-70
2022/01/11 07:27:27;;;;;;;42.15;22.25;;;0.70;99.90;;;;;;5037623;28;20052;-70
2022/01/11 07:29:53;;;;;;;35.65;20.17;;;0.70;99.90;;;;;;5037936;28;20048;-71
2022/01/11 07:32:18;;;;;;;38.42;20.70;;;0.60;99.90;;;;;;5037781;28;20049;-71
2022/01/11 07:34:44;;;;;;;44.50;21.70;;;0.60;99.90;;;;;;5037860;28;20102;-70
2022/01/11 07:37:10;;;;;;;39.47;20.45;;;0.60;99.90;;;;;;5037648;28;20041;-69
2022/01/11 07:39:35;;;;;;;39.42;20.27;;;0.60;99.90;;;;;;5021102;28;20087;-70
2022/01/11 07:42:01;;;;;;;37.72;20.85;;;0.60;99.90;;;;;;5037852;28;20041;-70
2022/01/11 07:44:27;;;;;;;42.15;19.85;;;0.70;99.90;;;;;;5037766;28;20124;-70
2022/01/11 07:46:53;;;;;;;34.92;19.75;;;0.70;99.90;;;;;;5037751;28;20033;-70
2022/01/11 07:49:19;;;;;;;35.78;19.85;;;0.60;99.90;;;;;;5037561;28;20049;-70
2022/01/11 07:51:45;;;;;;;36.28;18.77;;;0.70;99.90;;;;;;5037414;28;20040;-70
2022/01/11 07:54:11;;;;;;;34.20;19.02;;;0.70;99.90;;;;;;5020880;28;20045;-70
2022/01/11 07:56:36;;;;;;;34.40;19.50;;;0.70;99.90;;;;;;5036903;28;20045;-70
2022/01/11 07:59:02;;;;;;;38.75;19.67;;;0.70;99.90;;;;;;5037207;28;20045;-70
2022/01/11 08:01:27;;;;;;;34.63;18.60;;;0.70;99.90;;;;;;5021060;28;20045;-70
2022/01/11 08:03:53;;;;;;;35.40;18.67;;;0.70;99.90;;;;;;5037512;28;20400;-70
2022/01/11 08:06:19;;;;;;;37.38;19.48;;;0.70;99.90;;;;;;5037154;28;20048;-71
2022/01/11 08:08:44;;;;;;;32.53;18.52;;;0.70;99.90;;;;;;5020622;28;20045;-70
2022/01/11 08:11:10;;;;;;;37.22;18.20;;;0.70;99.90;;;;;;5020568;28;20037;-70
2022/01/11 08:13:37;;;;;;;34.90;18.42;;;0.70;99.90;;;;;;5037139;28;20045;-70
2022/01/11 08:16:03;;;;;;;27.55;17.23;;;0.70;99.90;;;;;;5036888;28;20041;-71
2022/01/11 08:18:29;;;;;;;31.20;17.35;;;0.60;99.90;;;;;;5036920;28;20045;-70
2022/01/11 08:20:54;;;;;;;33.00;17.30;;;0.60;99.90;;;;;;5020470;28;20037;-70
2022/01/11 08:23:20;;;;;;;28.73;17.30;;;0.70;99.90;;;;;;5020339;28;20044;-70
2022/01/11 08:25:45;;;;;;;31.85;17.75;;;0.60;99.90;;;;;;5036801;28;20040;-70
2022/01/11 08:28:11;;;;;;;31.30;17.60;;;0.70;99.90;;;;;;5019892;28;20112;-70
2022/01/11 08:30:37;;;;;;;31.63;17.63;;;0.70;99.90;;;;;;5020174;28;20110;-70
2022/01/11 08:33:04;;;;;;;27.33;17.10;;;0.70;99.90;;;;;;5036448;28;20028;-70
2022/01/11 08:35:31;;;;;;;31.63;17.05;;;0.70;99.90;;;;;;5036761;28;20041;-70
2022/01/11 08:37:57;;;;;;;29.45;16.45;;;0.70;99.90;;;;;;5036602;28;20504;-70
2022/01/11 08:40:23;;;;;;;32.03;18.00;;;0.70;99.90;;;;;;5036552;28;20529;-69
2022/01/11 08:42:49;;;;;;;26.58;17.08;;;0.70;99.90;;;;;;5036600;28;20049;-69
2022/01/11 08:45:15;;;;;;;28.30;17.38;;;0.60;99.90;;;;;;5037160;28;20393;-69
2022/01/11 08:47:41;;;;;;;28.67;16.58;;;0.60;99.90;;;;;;5036191;28;20078;-69
2022/01/11 08:50:10;;;;;;;25.80;16.17;;;0.60;99.90;;;;;;5036218;28;20390;-69
2022/01/11 08:52:36;;;;;;;28.00;16.92;;;0.50;99.90;;;;;;5036656;28;20040;-70
2022/01/11 08:55:02;;;;;;;28.13;16.15;;;0.50;99.90;;;;;;5019824;28;20087;-71
2022/01/11 08:57:29;;;;;;;25.90;16.00;;;0.50;99.90;;;;;;5036057;28;20041;-68
2022/01/11 08:59:54;;;;;;;24.52;15.68;;;0.50;99.90;;;;;;5035971;28;20084;-69
2022/01/11 09:02:21;;;;;;;27.75;16.15;;;0.50;99.90;;;;;;5036028;28;20068;-68
2022/01/11 09:04:48;;;;;;;27.38;15.75;;;0.50;99.90;;;;;;5036195;28;20033;-70
2022/01/11 09:07:13;;;;;;;23.85;15.60;;;0.60;99.90;;;;;;5019339;28;20485;-70
2022/01/11 09:09:39;;;;;;;24.92;16.88;;;0.60;99.90;;;;;;5035028;28;20110;-70
2022/01/11 09:12:08;;;;;;;21.77;14.88;;;0.60;99.90;;;;;;5036044;28;20072;-70
2022/01/11 09:14:34;;;;;;;24.98;15.73;;;0.60;99.90;;;;;;5035727;28;20125;-70
2022/01/11 09:17:02;;;;;;;24.58;15.82;;;0.60;99.90;;;;;;5035614;28;20123;-70
2022/01/11 09:19:29;;;;;;;25.55;15.90;;;0.60;99.90;;;;;;5035416;28;20045;-70
2022/01/11 09:21:55;;;;;;;29.98;16.38;;;0.70;99.90;;;;;;5036545;28;20136;-71
2022/01/11 09:24:21;;;;;;;25.65;16.40;;;0.70;99.90;;;;;;5019442;28;20493;-71
2022/01/11 09:26:48;;;;;;;24.90;16.67;;;0.70;99.90;;;;;;5019271;28;20033;-71
2022/01/11 09:29:14;;;;;;;30.05;17.10;;;0.70;99.90;;;;;;5035451;28;20045;-70
2022/01/11 09:31:41;;;;;;;27.77;16.05;;;0.70;99.90;;;;;;5035924;28;20115;-71
2022/01/11 09:34:07;;;;;;;27.15;16.85;;;0.70;99.90;;;;;;5035564;28;20570;-71
2022/01/11 09:36:34;;;;;;;25.63;16.20;;;0.80;99.90;;;;;;5019078;28;20051;-71
2022/01/11 09:38:59;;;;;;;27.48;17.48;;;0.80;99.90;;;;;;5035474;28;20045;-70
2022/01/11 09:41:25;;;;;;;28.77;17.30;;;0.70;99.90;;;;;;5035356;28;20037;-71
2022/01/11 09:43:51;;;;;;;28.88;17.80;;;0.70;99.90;;;;;;5035426;28;20048;-71
2022/01/11 09:46:17;;;;;;;24.88;16.73;;;0.80;99.90;;;;;;5035377;28;20075;-71
2022/01/11 09:48:44;;;;;;;29.52;18.10;;;0.80;99.90;;;;;;5019078;28;20452;-70
2022/01/11 09:51:10;;;;;;;30.13;18.35;;;0.80;99.90;;;;;;5035320;28;20048;-70
2022/01/11 09:53:35;;;;;;;29.58;17.77;;;0.80;99.90;;;;;;5053464;28;20037;-71
2022/01/11 09:56:04;;;;;;;26.70;16.80;;;0.90;99.90;;;;;;5035215;28;20515;-71
2022/01/11 09:58:30;;;;;;;29.00;17.23;;;0.90;99.90;;;;;;5035107;28;20079;-71
2022/01/11 10:00:56;;;;;;;27.45;16.83;;;0.90;99.90;;;;;;5018784;28;20068;-71
2022/01/11 10:03:21;;;;;;;26.30;17.00;;;1.00;99.90;;;;;;5035203;28;20116;-71
2022/01/11 10:05:47;;;;;;;26.90;17.13;;;1.00;99.90;;;;;;5035377;28;20049;-71
2022/01/11 10:08:19;;;;;;;25.13;16.85;;;1.00;99.90;;;;;;5035948;28;20048;-71
2022/01/11 10:10:45;;;;;;;28.60;18.10;;;1.00;99.90;;;;;;5019030;28;20123;-70
2022/01/11 10:13:47;;;;;;;27.23;17.38;;;1.10;99.90;;;;;;5035234;28;20041;-70
2022/01/11 10:16:27;;;;;;;25.92;17.00;;;1.10;99.90;;;;;;5034759;28;20041;-70
2022/01/11 10:18:55;;;;;;;23.77;16.48;;;1.20;99.90;;;;;;5035207;28;20052;-70
2022/01/11 10:21:33;;;;;;;27.73;17.63;;;1.20;99.90;;;;;;5038570;28;20033;-70
2022/01/11 10:24:19;;;;;;;25.20;16.73;;;1.30;99.90;;;;;;5022573;28;20044;-71
2022/01/11 10:26:46;;;;;;;27.65;16.92;;;1.30;99.90;;;;;;5038908;28;20635;-71
2022/01/11 10:29:27;;;;;;;28.05;16.85;;;1.40;99.90;;;;;;5038747;28;20033;-71
2022/01/11 10:31:54;;;;;;;29.08;17.45;;;1.40;99.90;;;;;;5039172;28;20048;-70
2022/01/11 10:34:34;;;;;;;27.73;18.02;;;1.40;99.90;;;;;;5039085;28;20067;-71
2022/01/11 10:37:03;;;;;;;26.52;17.42;;;1.50;99.90;;;;;;5039108;28;20532;-70
2022/01/11 10:39:47;;;;;;;25.95;17.45;;;1.50;99.90;;;;;;5038567;28;20049;-70
2022/01/11 10:42:23;;;;;;;;;;;1.50;99.90;;;;;;5039233;28;20037;-70
2022/01/11 10:44:59;;;;;;;30.17;17.00;;;1.50;99.90;;;;;;5038648;28;19927;-70
2022/01/11 10:47:30;;;;;;;26.73;17.00;;;1.60;99.90;;;;;;5038612;28;20051;-70
2022/01/11 10:49:59;;;;;;;23.48;16.73;;;1.70;99.90;;;;;;5038523;28;20057;-70
2022/01/11 10:52:31;;;;;;;27.23;16.80;;;1.80;99.90;;;;;;5038768;28;20048;-70
2022/01/11 10:54:58;;;;;;;26.83;17.45;;;1.80;99.90;;;;;;5038511;28;20047;-70
2022/01/11 10:57:27;;;;;;;23.67;15.35;;;1.90;99.90;;;;;;5038345;28;20500;-70
2022/01/11 11:00:15;;;;;;;24.30;15.23;;;2.00;99.90;;;;;;5038387;28;20041;-70
2022/01/11 11:02:43;;;;;;;22.90;16.60;;;2.00;99.90;;;;;;5026034;28;20049;-70
2022/01/11 11:05:19;;;;;;;25.65;16.48;;;2.00;99.90;;;;;;5038276;28;20520;-71
2022/01/11 11:07:58;;;;;;;24.77;15.98;;;2.10;99.90;;;;;;5038501;28;20033;-71
2022/01/11 11:10:46;;;;;;;23.45;15.85;;;2.10;99.90;;;;;;5038238;28;20126;-71
2022/01/11 11:13:33;;;;;;;23.33;14.73;;;2.20;99.90;;;;;;5021992;28;20041;-71
2022/01/11 11:16:13;;;;;;;22.65;15.05;;;2.20;99.90;;;;;;5038056;28;20053;-71
2022/01/11 11:18:41;;;;;;;23.10;15.43;;;2.20;99.90;;;;;;5021272;28;20463;-70
2022/01/11 11:21:32;;;;;;;32.30;16.10;;;2.20;99.90;;;;;;5038034;28;20121;-70
2022/01/11 11:24:02;;;;;;;27.83;15.88;;;2.30;99.90;;;;;;5038355;28;20033;-71
2022/01/11 11:26:37;;;;;;;22.88;16.17;;;2.40;99.90;;;;;;5021619;28;20493;-71
2022/01/11 11:29:08;;;;;;;24.55;17.02;;;2.50;99.90;;;;;;5037991;28;20084;-71
2022/01/11 11:34:03;;;;;;;22.27;15.20;;;3.10;99.90;;;;;;5096637;22;20400;-71
2022/01/11 11:36:30;;;;;;;21.15;14.15;;;3.70;99.90;;;;;;5058091;28;20037;-70
2022/01/11 11:39:11;;;;;;;20.52;13.65;;;4.50;99.90;;;;;;5057724;28;20086;-71
2022/01/11 11:41:43;;;;;;;21.95;14.57;;;5.00;99.90;;;;;;5057767;28;20381;-72
2022/01/11 11:44:09;;;;;;;19.42;13.27;;;5.60;99.90;;;;;;5057927;28;20036;-71
2022/01/11 11:47:02;;;;;;;18.83;13.68;;;6.00;99.90;;;;;;5057858;28;20508;-69
2022/01/11 11:49:47;;;;;;;17.95;13.27;;;6.50;99.20;;;;;;5055200;28;20079;-70
2022/01/11 11:52:17;;;;;;;19.77;12.50;;;6.50;98.50;;;;;;5057358;28;20080;-71
2022/01/11 11:54:55;;;;;;;20.15;13.48;;;7.00;98.30;;;;;;5074448;28;20075;-71
2022/01/11 11:57:23;;;;;;;19.77;13.02;;;7.10;97.70;;;;;;5074390;28;20078;-71
2022/01/11 12:00:11;;;;;;;19.88;13.88;;;7.00;96.90;;;;;;5057278;28;20051;-71
2022/01/11 12:02:40;;;;;;;19.98;13.10;;;7.30;94.20;;;;;;5074111;28;20032;-71
2022/01/11 12:05:10;;;;;;;18.95;12.85;;;7.40;94.80;;;;;;5057550;28;20040;-71
2022/01/11 12:07:42;;;;;;;20.65;13.63;;;7.00;94.00;;;;;;5057213;28;20077;-70
2022/01/11 12:10:17;;;;;;;19.67;13.90;;;6.30;95.70;;;;;;5057516;28;20507;-71
2022/01/11 12:12:54;;;;;;;24.95;14.27;;;5.80;97.30;;;;;;5074006;28;20048;-71
2022/01/11 12:15:22;;;;;;;19.95;13.23;;;5.50;97.90;;;;;;5073738;28;20043;-71
2022/01/11 12:18:08;;;;;;;19.33;13.25;;;5.20;99.10;;;;;;5073991;28;20040;-71
2022/01/11 12:20:49;;;;;;;20.50;14.63;;;5.00;99.30;;;;;;5063506;28;20057;-71
2022/01/11 12:23:34;;;;;;;18.88;13.63;;;4.70;99.90;;;;;;5057201;28;20119;-71
2022/01/11 12:26:13;;;;;;;18.23;12.82;;;4.60;99.90;;;;;;5073739;28;20072;-71
2022/01/11 12:28:39;;;;;;;20.42;14.43;;;4.50;99.90;;;;;;5074172;28;20044;-71
2022/01/11 12:31:25;;;;;;;22.60;15.13;;;4.50;99.90;;;;;;5073876;28;20033;-71
2022/01/11 12:33:51;;;;;;;21.52;13.18;;;4.50;99.90;;;;;;5073140;28;20416;-71
2022/01/11 12:36:17;;;;;;;21.98;13.57;;;4.60;99.90;;;;;;5056574;28;20028;-71
2022/01/11 12:39:01;;;;;;;21.55;13.70;;;4.60;99.90;;;;;;5073085;28;20040;-71
2022/01/11 12:41:39;;;;;;;19.98;13.23;;;4.60;99.90;;;;;;5073186;28;20044;-71
2022/01/11 12:44:34;;;;;;;20.35;14.02;;;4.70;99.90;;;;;;5073609;28;20082;-70